sensor_id;sensor_type;location;lat;lon;timestamp;temperature;humidity
17170;DHT22;8700;48.222;16.342;2023-04-28T00:00:08;11.40;99.90
17170;DHT22;8700;48.222;16.342;2023-04-28T00:03:31;11.40;99.90
17170;DHT22;8700;48.222;16.342;2023-04-28T00:06:53;11.40;99.90
17170;DHT22;8700;48.222;16.342;2023-04-28T00:10:14;11.40;99.90
17170;DHT22;8700;48.222;16.342;2023-04-28T00:13:36;11.40;99.90
17170;DHT22;8700;48.222;16.342;2023-04-28T00:16:59;11.30;99.90
17170;DHT22;8700;48.222;16.342;2023-04-28T00:20:22;11.30;99.90
17170;DHT22;8700;48.222;16.342;2023-04-28T00:23:44;11.10;99.90
17170;DHT22;8700;48.222;16.342;2023-04-28T00:27:08;11.20;99.90
17170;DHT22;8700;48.222;16.342;2023-04-28T00:30:33;11.10;99.90
17170;DHT22;8700;48.222;16.342;2023-04-28T00:33:56;11.00;99.90
17170;DHT22;8700;48.222;16.342;2023-04-28T00:37:18;10.90;99.90
17170;DHT22;8700;48.222;16.342;2023-04-28T00:40:39;10.90;99.90
17170;DHT22;8700;48.222;16.342;2023-04-28T00:44:06;10.60;99.90
17170;DHT22;8700;48.222;16.342;2023-04-28T00:47:28;10.50;99.90
17170;DHT22;8700;48.222;16.342;2023-04-28T00:50:51;10.60;99.90
17170;DHT22;8700;48.222;16.342;2023-04-28T00:54:13;10.70;99.90
17170;DHT22;8700;48.222;16.342;2023-04-28T00:57:37;10.60;99.90
17170;DHT22;8700;48.222;16.342;2023-04-28T01:01:04;10.60;99.90
17170;DHT22;8700;48.222;16.342;2023-04-28T01:04:26;10.50;99.90
17170;DHT22;8700;48.222;16.342;2023-04-28T01:07:53;10.50;99.90
17170;DHT22;8700;48.222;16.342;2023-04-28T01:11:15;10.40;99.90
17170;DHT22;8700;48.222;16.342;2023-04-28T01:14:40;10.40;99.90
17170;DHT22;8700;48.222;16.342;2023-04-28T01:18:01;10.50;99.90
17170;DHT22;8700;48.222;16.342;2023-04-28T01:21:26;10.50;99.90
17170;DHT22;8700;48.222;16.342;2023-04-28T01:24:51;10.50;99.90
17170;DHT22;8700;48.222;16.342;2023-04-28T01:28:12;10.50;99.90
17170;DHT22;8700;48.222;16.342;2023-04-28T01:31:34;10.50;99.90
17170;DHT22;8700;48.222;16.342;2023-04-28T01:34:57;10.50;99.90
17170;DHT22;8700;48.222;16.342;2023-04-28T01:38:19;10.50;99.90
17170;DHT22;8700;48.222;16.342;2023-04-28T01:41:47;10.50;99.90
17170;DHT22;8700;48.222;16.342;2023-04-28T01:45:10;10.60;99.90
17170;DHT22;8700;48.222;16.342;2023-04-28T01:48:37;10.60;99.90
17170;DHT22;8700;48.222;16.342;2023-04-28T01:51:59;10.50;99.90
17170;DHT22;8700;48.222;16.342;2023-04-28T01:55:20;10.50;99.90
17170;DHT22;8700;48.222;16.342;2023-04-28T01:58:43;10.40;99.90
17170;DHT22;8700;48.222;16.342;2023-04-28T02:02:05;10.50;99.90
17170;DHT22;8700;48.222;16.342;2023-04-28T02:05:26;10.50;99.90
17170;DHT22;8700;48.222;16.342;2023-04-28T02:08:48;10.50;99.90
17170;DHT22;8700;48.222;16.342;2023-04-28T02:12:09;10.20;99.90
17170;DHT22;8700;48.222;16.342;2023-04-28T02:15:32;10.20;99.90
17170;DHT22;8700;48.222;16.342;2023-04-28T02:18:56;10.20;99.90
17170;DHT22;8700;48.222;16.342;2023-04-28T02:22:18;10.10;99.90
17170;DHT22;8700;48.222;16.342;2023-04-28T02:25:40;10.10;99.90
17170;DHT22;8700;48.222;16.342;2023-04-28T02:29:02;10.00;99.90
17170;DHT22;8700;48.222;16.342;2023-04-28T02:32:25;10.10;99.90
17170;DHT22;8700;48.222;16.342;2023-04-28T02:35:57;10.00;99.90
17170;DHT22;8700;48.222;16.342;2023-04-28T02:39:19;10.20;99.90
17170;DHT22;8700;48.222;16.342;2023-04-28T02:42:44;10.20;99.90
17170;DHT22;8700;48.222;16.342;2023-04-28T02:46:08;10.30;99.90
17170;DHT22;8700;48.222;16.342;2023-04-28T02:49:32;10.30;99.90
17170;DHT22;8700;48.222;16.342;2023-04-28T02:52:55;10.30;99.90
17170;DHT22;8700;48.222;16.342;2023-04-28T02:56:17;10.10;99.90
17170;DHT22;8700;48.222;16.342;2023-04-28T02:59:38;9.60;99.90
17170;DHT22;8700;48.222;16.342;2023-04-28T03:03:04;9.70;99.90
17170;DHT22;8700;48.222;16.342;2023-04-28T03:06:27;9.70;99.90
17170;DHT22;8700;48.222;16.342;2023-04-28T03:09:49;9.60;99.90
17170;DHT22;8700;48.222;16.342;2023-04-28T03:13:10;9.60;99.90
17170;DHT22;8700;48.222;16.342;2023-04-28T03:16:32;9.60;99.90
17170;DHT22;8700;48.222;16.342;2023-04-28T03:19:54;9.60;99.90
17170;DHT22;8700;48.222;16.342;2023-04-28T03:23:17;9.70;99.90
17170;DHT22;8700;48.222;16.342;2023-04-28T03:26:39;9.60;99.90
17170;DHT22;8700;48.222;16.342;2023-04-28T03:30:00;9.60;99.90
17170;DHT22;8700;48.222;16.342;2023-04-28T03:33:25;9.60;99.90
17170;DHT22;8700;48.222;16.342;2023-04-28T03:36:46;9.70;99.90
17170;DHT22;8700;48.222;16.342;2023-04-28T03:40:10;9.70;99.90
17170;DHT22;8700;48.222;16.342;2023-04-28T03:43:32;9.70;99.90
17170;DHT22;8700;48.222;16.342;2023-04-28T03:46:56;9.80;99.90
17170;DHT22;8700;48.222;16.342;2023-04-28T03:50:18;9.90;99.90
17170;DHT22;8700;48.222;16.342;2023-04-28T03:53:39;10.00;99.90
17170;DHT22;8700;48.222;16.342;2023-04-28T03:57:02;9.90;99.90
17170;DHT22;8700;48.222;16.342;2023-04-28T04:00:24;9.80;99.90
17170;DHT22;8700;48.222;16.342;2023-04-28T04:03:48;9.80;99.90
17170;DHT22;8700;48.222;16.342;2023-04-28T04:07:10;9.70;99.90
17170;DHT22;8700;48.222;16.342;2023-04-28T04:10:32;9.80;99.90
17170;DHT22;8700;48.222;16.342;2023-04-28T04:13:55;9.70;99.90
17170;DHT22;8700;48.222;16.342;2023-04-28T04:17:16;9.60;99.90
17170;DHT22;8700;48.222;16.342;2023-04-28T04:20:38;9.70;99.90
17170;DHT22;8700;48.222;16.342;2023-04-28T04:23:59;9.60;99.90
17170;DHT22;8700;48.222;16.342;2023-04-28T04:27:21;9.50;99.90
17170;DHT22;8700;48.222;16.342;2023-04-28T04:30:44;9.40;99.90
17170;DHT22;8700;48.222;16.342;2023-04-28T04:34:06;9.50;99.90
17170;DHT22;8700;48.222;16.342;2023-04-28T04:37:31;9.60;99.90
17170;DHT22;8700;48.222;16.342;2023-04-28T04:40:53;9.90;99.90
17170;DHT22;8700;48.222;16.342;2023-04-28T04:44:15;10.10;99.90
17170;DHT22;8700;48.222;16.342;2023-04-28T04:47:40;10.00;99.90
17170;DHT22;8700;48.222;16.342;2023-04-28T04:51:01;10.20;99.90
17170;DHT22;8700;48.222;16.342;2023-04-28T04:54:23;10.10;99.90
17170;DHT22;8700;48.222;16.342;2023-04-28T04:57:45;10.00;99.90
17170;DHT22;8700;48.222;16.342;2023-04-28T05:01:08;10.20;99.90
17170;DHT22;8700;48.222;16.342;2023-04-28T05:04:31;10.10;99.90
17170;DHT22;8700;48.222;16.342;2023-04-28T05:07:53;10.30;99.90
17170;DHT22;8700;48.222;16.342;2023-04-28T05:11:14;10.40;99.90
17170;DHT22;8700;48.222;16.342;2023-04-28T05:14:36;10.60;99.90
17170;DHT22;8700;48.222;16.342;2023-04-28T05:17:58;10.40;99.90
17170;DHT22;8700;48.222;16.342;2023-04-28T05:21:21;10.30;99.90
17170;DHT22;8700;48.222;16.342;2023-04-28T05:24:43;10.50;99.90
17170;DHT22;8700;48.222;16.342;2023-04-28T05:28:05;10.60;99.90
17170;DHT22;8700;48.222;16.342;2023-04-28T05:31:28;10.60;99.90
17170;DHT22;8700;48.222;16.342;2023-04-28T05:34:50;10.60;99.90
17170;DHT22;8700;48.222;16.342;2023-04-28T05:38:13;10.70;99.90
17170;DHT22;8700;48.222;16.342;2023-04-28T05:41:35;10.70;99.90
17170;DHT22;8700;48.222;16.342;2023-04-28T05:44:57;10.60;99.90
17170;DHT22;8700;48.222;16.342;2023-04-28T05:48:18;10.70;99.90
17170;DHT22;8700;48.222;16.342;2023-04-28T05:51:40;10.90;99.90
17170;DHT22;8700;48.222;16.342;2023-04-28T05:55:03;11.00;99.90
17170;DHT22;8700;48.222;16.342;2023-04-28T05:58:27;11.20;99.90
17170;DHT22;8700;48.222;16.342;2023-04-28T06:01:48;11.60;99.90
17170;DHT22;8700;48.222;16.342;2023-04-28T06:05:11;11.80;99.90
17170;DHT22;8700;48.222;16.342;2023-04-28T06:08:35;12.10;99.90
17170;DHT22;8700;48.222;16.342;2023-04-28T06:12:08;12.40;99.90
17170;DHT22;8700;48.222;16.342;2023-04-28T06:15:30;12.20;99.90
17170;DHT22;8700;48.222;16.342;2023-04-28T06:18:52;12.30;99.90
17170;DHT22;8700;48.222;16.342;2023-04-28T06:22:14;12.00;99.90
17170;DHT22;8700;48.222;16.342;2023-04-28T06:25:36;11.90;99.90
17170;DHT22;8700;48.222;16.342;2023-04-28T06:28:59;12.10;99.90
17170;DHT22;8700;48.222;16.342;2023-04-28T06:32:21;12.80;99.90
17170;DHT22;8700;48.222;16.342;2023-04-28T06:35:42;12.90;99.90
17170;DHT22;8700;48.222;16.342;2023-04-28T06:39:04;13.20;99.90
17170;DHT22;8700;48.222;16.342;2023-04-28T06:42:25;13.30;99.90
17170;DHT22;8700;48.222;16.342;2023-04-28T06:45:49;13.50;99.90
17170;DHT22;8700;48.222;16.342;2023-04-28T06:49:10;13.80;99.90
17170;DHT22;8700;48.222;16.342;2023-04-28T06:52:32;14.00;99.90
17170;DHT22;8700;48.222;16.342;2023-04-28T06:55:54;13.80;99.90
17170;DHT22;8700;48.222;16.342;2023-04-28T06:59:17;14.10;99.90
17170;DHT22;8700;48.222;16.342;2023-04-28T07:02:39;14.10;99.90
17170;DHT22;8700;48.222;16.342;2023-04-28T07:06:01;14.40;99.90
17170;DHT22;8700;48.222;16.342;2023-04-28T07:09:23;14.50;99.90
17170;DHT22;8700;48.222;16.342;2023-04-28T07:12:44;14.10;99.90
17170;DHT22;8700;48.222;16.342;2023-04-28T07:16:06;14.10;99.90
17170;DHT22;8700;48.222;16.342;2023-04-28T07:19:28;14.50;99.90
17170;DHT22;8700;48.222;16.342;2023-04-28T07:22:50;14.80;99.90
17170;DHT22;8700;48.222;16.342;2023-04-28T07:26:11;14.90;99.90
17170;DHT22;8700;48.222;16.342;2023-04-28T07:29:35;14.50;99.90
17170;DHT22;8700;48.222;16.342;2023-04-28T07:32:59;14.30;99.90
17170;DHT22;8700;48.222;16.342;2023-04-28T07:36:22;14.40;99.90
17170;DHT22;8700;48.222;16.342;2023-04-28T07:39:44;14.70;99.90
17170;DHT22;8700;48.222;16.342;2023-04-28T07:43:06;14.70;99.90
17170;DHT22;8700;48.222;16.342;2023-04-28T07:46:27;14.80;99.90
17170;DHT22;8700;48.222;16.342;2023-04-28T07:49:49;14.60;99.90
17170;DHT22;8700;48.222;16.342;2023-04-28T07:53:14;14.30;99.90
17170;DHT22;8700;48.222;16.342;2023-04-28T07:56:35;14.40;99.90
17170;DHT22;8700;48.222;16.342;2023-04-28T07:59:57;14.60;99.90
17170;DHT22;8700;48.222;16.342;2023-04-28T08:03:19;14.90;99.90
17170;DHT22;8700;48.222;16.342;2023-04-28T08:06:41;15.50;99.90
17170;DHT22;8700;48.222;16.342;2023-04-28T08:10:04;16.10;99.30
17170;DHT22;8700;48.222;16.342;2023-04-28T08:13:26;16.30;98.10
17170;DHT22;8700;48.222;16.342;2023-04-28T08:16:47;16.50;98.10
17170;DHT22;8700;48.222;16.342;2023-04-28T08:20:10;17.30;96.40
17170;DHT22;8700;48.222;16.342;2023-04-28T08:23:34;18.30;94.00
17170;DHT22;8700;48.222;16.342;2023-04-28T08:26:57;18.20;92.60
17170;DHT22;8700;48.222;16.342;2023-04-28T08:30:19;18.00;92.50
17170;DHT22;8700;48.222;16.342;2023-04-28T08:33:40;17.90;92.20
17170;DHT22;8700;48.222;16.342;2023-04-28T08:37:03;18.50;91.50
17170;DHT22;8700;48.222;16.342;2023-04-28T08:40:26;18.90;90.20
17170;DHT22;8700;48.222;16.342;2023-04-28T08:43:49;19.20;88.30
17170;DHT22;8700;48.222;16.342;2023-04-28T08:47:12;20.10;85.20
17170;DHT22;8700;48.222;16.342;2023-04-28T08:50:37;20.50;82.10
17170;DHT22;8700;48.222;16.342;2023-04-28T08:54:02;22.10;76.80
17170;DHT22;8700;48.222;16.342;2023-04-28T08:57:26;21.80;73.10
17170;DHT22;8700;48.222;16.342;2023-04-28T09:00:49;22.50;72.80
17170;DHT22;8700;48.222;16.342;2023-04-28T09:04:11;21.30;73.10
17170;DHT22;8700;48.222;16.342;2023-04-28T09:07:32;20.10;75.60
17170;DHT22;8700;48.222;16.342;2023-04-28T09:11:07;19.70;78.00
17170;DHT22;8700;48.222;16.342;2023-04-28T09:14:35;19.80;77.20
17170;DHT22;8700;48.222;16.342;2023-04-28T09:17:58;19.40;78.80
17170;DHT22;8700;48.222;16.342;2023-04-28T09:21:20;20.00;79.00
17170;DHT22;8700;48.222;16.342;2023-04-28T09:24:42;20.30;77.70
17170;DHT22;8700;48.222;16.342;2023-04-28T09:28:18;20.60;77.20
17170;DHT22;8700;48.222;16.342;2023-04-28T09:31:40;20.10;78.50
17170;DHT22;8700;48.222;16.342;2023-04-28T09:35:04;21.00;77.00
17170;DHT22;8700;48.222;16.342;2023-04-28T09:38:26;21.10;75.20
17170;DHT22;8700;48.222;16.342;2023-04-28T09:41:48;20.90;76.40
17170;DHT22;8700;48.222;16.342;2023-04-28T09:45:10;21.10;76.20
17170;DHT22;8700;48.222;16.342;2023-04-28T09:48:33;21.40;75.90
17170;DHT22;8700;48.222;16.342;2023-04-28T09:52:11;23.30;72.60
17170;DHT22;8700;48.222;16.342;2023-04-28T09:55:34;22.50;71.00
17170;DHT22;8700;48.222;16.342;2023-04-28T09:58:57;22.50;71.00
17170;DHT22;8700;48.222;16.342;2023-04-28T10:02:20;23.00;70.20
17170;DHT22;8700;48.222;16.342;2023-04-28T10:05:42;22.50;70.50
17170;DHT22;8700;48.222;16.342;2023-04-28T10:09:06;23.30;69.50
17170;DHT22;8700;48.222;16.342;2023-04-28T10:12:28;24.10;66.30
17170;DHT22;8700;48.222;16.342;2023-04-28T10:15:50;22.70;67.40
17170;DHT22;8700;48.222;16.342;2023-04-28T10:19:14;22.50;67.60
17170;DHT22;8700;48.222;16.342;2023-04-28T10:22:53;22.90;67.90
17170;DHT22;8700;48.222;16.342;2023-04-28T10:26:19;23.00;66.10
17170;DHT22;8700;48.222;16.342;2023-04-28T10:29:40;23.40;66.20
17170;DHT22;8700;48.222;16.342;2023-04-28T10:33:23;23.50;65.40
17170;DHT22;8700;48.222;16.342;2023-04-28T10:36:49;24.00;63.90
17170;DHT22;8700;48.222;16.342;2023-04-28T10:40:30;23.30;64.80
17170;DHT22;8700;48.222;16.342;2023-04-28T10:43:55;23.40;64.70
17170;DHT22;8700;48.222;16.342;2023-04-28T10:47:16;22.40;65.40
17170;DHT22;8700;48.222;16.342;2023-04-28T10:54:32;23.20;65.50
17170;DHT22;8700;48.222;16.342;2023-04-28T11:01:49;23.60;64.60
17170;DHT22;8700;48.222;16.342;2023-04-28T11:05:12;23.00;65.60
17170;DHT22;8700;48.222;16.342;2023-04-28T11:08:35;23.50;64.70
17170;DHT22;8700;48.222;16.342;2023-04-28T11:12:04;22.80;65.20
17170;DHT22;8700;48.222;16.342;2023-04-28T11:15:29;22.70;66.00
17170;DHT22;8700;48.222;16.342;2023-04-28T11:19:02;23.20;66.80
17170;DHT22;8700;48.222;16.342;2023-04-28T11:22:24;24.40;63.80
17170;DHT22;8700;48.222;16.342;2023-04-28T11:25:55;23.70;65.00
17170;DHT22;8700;48.222;16.342;2023-04-28T11:29:21;23.80;65.00
17170;DHT22;8700;48.222;16.342;2023-04-28T11:32:51;24.40;63.90
17170;DHT22;8700;48.222;16.342;2023-04-28T11:36:24;24.90;62.80
17170;DHT22;8700;48.222;16.342;2023-04-28T11:39:47;25.60;61.00
17170;DHT22;8700;48.222;16.342;2023-04-28T11:43:08;24.30;62.50
17170;DHT22;8700;48.222;16.342;2023-04-28T11:46:30;22.60;64.80
17170;DHT22;8700;48.222;16.342;2023-04-28T11:49:52;22.40;65.70
17170;DHT22;8700;48.222;16.342;2023-04-28T11:53:16;22.50;65.20
17170;DHT22;8700;48.222;16.342;2023-04-28T11:56:38;21.70;66.90
17170;DHT22;8700;48.222;16.342;2023-04-28T12:00:12;21.70;68.20
17170;DHT22;8700;48.222;16.342;2023-04-28T12:03:44;21.50;68.50
17170;DHT22;8700;48.222;16.342;2023-04-28T12:07:08;21.90;67.90
17170;DHT22;8700;48.222;16.342;2023-04-28T12:10:31;22.00;68.40
17170;DHT22;8700;48.222;16.342;2023-04-28T12:14:03;21.10;69.40
17170;DHT22;8700;48.222;16.342;2023-04-28T12:17:25;21.10;69.90
17170;DHT22;8700;48.222;16.342;2023-04-28T12:20:46;21.50;69.80
17170;DHT22;8700;48.222;16.342;2023-04-28T12:24:16;20.90;71.20
17170;DHT22;8700;48.222;16.342;2023-04-28T12:27:40;21.00;71.70
17170;DHT22;8700;48.222;16.342;2023-04-28T12:31:05;21.30;70.80
17170;DHT22;8700;48.222;16.342;2023-04-28T12:34:30;20.90;70.80
17170;DHT22;8700;48.222;16.342;2023-04-28T12:37:53;20.60;72.10
17170;DHT22;8700;48.222;16.342;2023-04-28T12:41:16;20.80;71.60
17170;DHT22;8700;48.222;16.342;2023-04-28T12:44:39;20.30;72.70
17170;DHT22;8700;48.222;16.342;2023-04-28T12:48:01;20.00;72.90
17170;DHT22;8700;48.222;16.342;2023-04-28T12:51:22;19.80;73.80
17170;DHT22;8700;48.222;16.342;2023-04-28T12:54:48;19.50;74.40
17170;DHT22;8700;48.222;16.342;2023-04-28T12:58:09;19.50;74.90
17170;DHT22;8700;48.222;16.342;2023-04-28T13:01:32;19.50;75.30
17170;DHT22;8700;48.222;16.342;2023-04-28T13:04:54;19.60;75.80
17170;DHT22;8700;48.222;16.342;2023-04-28T13:08:16;19.40;76.20
17170;DHT22;8700;48.222;16.342;2023-04-28T13:11:39;19.50;76.20
17170;DHT22;8700;48.222;16.342;2023-04-28T13:15:01;19.00;77.00
17170;DHT22;8700;48.222;16.342;2023-04-28T13:18:25;18.70;78.00
17170;DHT22;8700;48.222;16.342;2023-04-28T13:21:47;18.70;78.70
17170;DHT22;8700;48.222;16.342;2023-04-28T13:25:09;18.90;78.70
17170;DHT22;8700;48.222;16.342;2023-04-28T13:28:31;18.70;79.90
17170;DHT22;8700;48.222;16.342;2023-04-28T13:31:53;18.80;80.10
17170;DHT22;8700;48.222;16.342;2023-04-28T13:35:16;18.90;80.90
17170;DHT22;8700;48.222;16.342;2023-04-28T13:38:38;18.90;81.20
17170;DHT22;8700;48.222;16.342;2023-04-28T13:42:00;18.70;82.00
17170;DHT22;8700;48.222;16.342;2023-04-28T13:45:21;18.80;81.90
17170;DHT22;8700;48.222;16.342;2023-04-28T13:48:43;18.80;82.20
17170;DHT22;8700;48.222;16.342;2023-04-28T13:52:06;18.70;83.40
17170;DHT22;8700;48.222;16.342;2023-04-28T13:55:27;18.70;84.10
17170;DHT22;8700;48.222;16.342;2023-04-28T13:58:49;18.70;84.80
17170;DHT22;8700;48.222;16.342;2023-04-28T14:02:11;18.70;84.70
17170;DHT22;8700;48.222;16.342;2023-04-28T14:05:33;18.70;84.90
17170;DHT22;8700;48.222;16.342;2023-04-28T14:08:57;18.40;85.70
17170;DHT22;8700;48.222;16.342;2023-04-28T14:12:20;18.40;86.40
17170;DHT22;8700;48.222;16.342;2023-04-28T14:15:41;18.40;86.50
17170;DHT22;8700;48.222;16.342;2023-04-28T14:19:04;18.30;87.20
17170;DHT22;8700;48.222;16.342;2023-04-28T14:22:26;18.10;88.70
17170;DHT22;8700;48.222;16.342;2023-04-28T14:25:50;18.30;89.10
17170;DHT22;8700;48.222;16.342;2023-04-28T14:29:14;18.30;90.40
17170;DHT22;8700;48.222;16.342;2023-04-28T14:32:38;18.40;90.70
17170;DHT22;8700;48.222;16.342;2023-04-28T14:35:59;18.50;92.10
17170;DHT22;8700;48.222;16.342;2023-04-28T14:39:22;18.60;93.10
17170;DHT22;8700;48.222;16.342;2023-04-28T14:42:45;18.20;95.30
17170;DHT22;8700;48.222;16.342;2023-04-28T14:46:10;17.80;99.90
17170;DHT22;8700;48.222;16.342;2023-04-28T14:49:32;17.70;99.90
17170;DHT22;8700;48.222;16.342;2023-04-28T14:52:53;17.70;99.90
17170;DHT22;8700;48.222;16.342;2023-04-28T14:56:15;17.50;99.90
17170;DHT22;8700;48.222;16.342;2023-04-28T14:59:38;17.40;99.90
17170;DHT22;8700;48.222;16.342;2023-04-28T15:03:05;17.40;99.90
17170;DHT22;8700;48.222;16.342;2023-04-28T15:06:26;17.20;99.90
17170;DHT22;8700;48.222;16.342;2023-04-28T15:09:48;17.00;99.90
17170;DHT22;8700;48.222;16.342;2023-04-28T15:13:10;17.00;99.90
17170;DHT22;8700;48.222;16.342;2023-04-28T15:16:32;17.20;99.90
17170;DHT22;8700;48.222;16.342;2023-04-28T15:19:56;17.90;99.90
17170;DHT22;8700;48.222;16.342;2023-04-28T15:23:18;18.20;99.90
17170;DHT22;8700;48.222;16.342;2023-04-28T15:26:39;17.90;99.90
17170;DHT22;8700;48.222;16.342;2023-04-28T15:30:05;17.90;99.90
17170;DHT22;8700;48.222;16.342;2023-04-28T15:33:28;17.50;99.90
17170;DHT22;8700;48.222;16.342;2023-04-28T15:36:51;17.40;99.90
17170;DHT22;8700;48.222;16.342;2023-04-28T15:40:14;17.50;99.90
17170;DHT22;8700;48.222;16.342;2023-04-28T15:43:36;17.20;99.90
17170;DHT22;8700;48.222;16.342;2023-04-28T15:46:57;16.90;99.90
17170;DHT22;8700;48.222;16.342;2023-04-28T15:50:21;16.90;99.90
17170;DHT22;8700;48.222;16.342;2023-04-28T15:53:43;16.90;99.90
17170;DHT22;8700;48.222;16.342;2023-04-28T15:57:05;16.80;99.90
17170;DHT22;8700;48.222;16.342;2023-04-28T16:00:26;16.70;99.90
17170;DHT22;8700;48.222;16.342;2023-04-28T16:03:48;16.70;99.90
17170;DHT22;8700;48.222;16.342;2023-04-28T16:07:12;16.70;99.90
17170;DHT22;8700;48.222;16.342;2023-04-28T16:10:35;16.70;99.90
17170;DHT22;8700;48.222;16.342;2023-04-28T16:14:00;16.80;99.90
17170;DHT22;8700;48.222;16.342;2023-04-28T16:17:22;17.00;99.90
17170;DHT22;8700;48.222;16.342;2023-04-28T16:20:44;17.00;99.90
17170;DHT22;8700;48.222;16.342;2023-04-28T16:24:07;17.10;99.90
17170;DHT22;8700;48.222;16.342;2023-04-28T16:27:32;17.10;99.90
17170;DHT22;8700;48.222;16.342;2023-04-28T16:30:53;17.10;99.90
17170;DHT22;8700;48.222;16.342;2023-04-28T16:34:17;16.80;99.90
17170;DHT22;8700;48.222;16.342;2023-04-28T16:37:39;16.70;99.90
17170;DHT22;8700;48.222;16.342;2023-04-28T16:41:03;16.50;99.90
17170;DHT22;8700;48.222;16.342;2023-04-28T16:44:25;16.50;99.90
17170;DHT22;8700;48.222;16.342;2023-04-28T16:47:50;16.60;99.90
17170;DHT22;8700;48.222;16.342;2023-04-28T16:51:12;16.60;99.90
17170;DHT22;8700;48.222;16.342;2023-04-28T16:54:34;16.50;99.90
17170;DHT22;8700;48.222;16.342;2023-04-28T16:57:58;16.50;99.90
17170;DHT22;8700;48.222;16.342;2023-04-28T17:01:20;16.30;99.90
17170;DHT22;8700;48.222;16.342;2023-04-28T17:04:42;16.30;99.90
17170;DHT22;8700;48.222;16.342;2023-04-28T17:08:05;16.20;99.90
17170;DHT22;8700;48.222;16.342;2023-04-28T17:11:26;16.20;99.90
17170;DHT22;8700;48.222;16.342;2023-04-28T17:14:50;16.20;99.90
17170;DHT22;8700;48.222;16.342;2023-04-28T17:18:16;16.10;99.90
17170;DHT22;8700;48.222;16.342;2023-04-28T17:21:39;16.00;99.90
17170;DHT22;8700;48.222;16.342;2023-04-28T17:25:00;15.90;99.90
17170;DHT22;8700;48.222;16.342;2023-04-28T17:28:21;15.80;99.90
17170;DHT22;8700;48.222;16.342;2023-04-28T17:31:45;15.80;99.90
17170;DHT22;8700;48.222;16.342;2023-04-28T17:35:08;15.80;99.90
17170;DHT22;8700;48.222;16.342;2023-04-28T17:38:29;15.80;99.90
17170;DHT22;8700;48.222;16.342;2023-04-28T17:41:52;15.80;99.90
17170;DHT22;8700;48.222;16.342;2023-04-28T17:45:16;15.80;99.90
17170;DHT22;8700;48.222;16.342;2023-04-28T17:48:39;15.70;99.90
17170;DHT22;8700;48.222;16.342;2023-04-28T17:52:01;15.70;99.90
17170;DHT22;8700;48.222;16.342;2023-04-28T17:55:23;15.70;99.90
17170;DHT22;8700;48.222;16.342;2023-04-28T17:58:47;15.70;99.90
17170;DHT22;8700;48.222;16.342;2023-04-28T18:02:10;15.70;99.90
17170;DHT22;8700;48.222;16.342;2023-04-28T18:05:35;15.60;99.90
17170;DHT22;8700;48.222;16.342;2023-04-28T18:08:58;15.80;99.90
17170;DHT22;8700;48.222;16.342;2023-04-28T18:12:19;15.80;99.90
17170;DHT22;8700;48.222;16.342;2023-04-28T18:15:41;15.70;99.90
17170;DHT22;8700;48.222;16.342;2023-04-28T18:19:06;15.80;99.90
17170;DHT22;8700;48.222;16.342;2023-04-28T18:22:30;15.60;99.90
17170;DHT22;8700;48.222;16.342;2023-04-28T18:25:51;15.50;99.90
17170;DHT22;8700;48.222;16.342;2023-04-28T18:29:13;15.40;99.90
17170;DHT22;8700;48.222;16.342;2023-04-28T18:32:34;15.50;99.90
17170;DHT22;8700;48.222;16.342;2023-04-28T18:36:04;15.50;99.90
17170;DHT22;8700;48.222;16.342;2023-04-28T18:39:28;15.50;99.90
17170;DHT22;8700;48.222;16.342;2023-04-28T18:42:52;15.50;99.90
17170;DHT22;8700;48.222;16.342;2023-04-28T18:46:18;15.60;99.90
17170;DHT22;8700;48.222;16.342;2023-04-28T18:49:40;15.70;99.90
17170;DHT22;8700;48.222;16.342;2023-04-28T18:53:02;15.70;99.90
17170;DHT22;8700;48.222;16.342;2023-04-28T18:56:25;15.60;99.90
17170;DHT22;8700;48.222;16.342;2023-04-28T18:59:46;15.60;99.90
17170;DHT22;8700;48.222;16.342;2023-04-28T19:03:08;15.60;99.90
17170;DHT22;8700;48.222;16.342;2023-04-28T19:06:30;15.50;99.90
17170;DHT22;8700;48.222;16.342;2023-04-28T19:09:52;15.40;99.90
17170;DHT22;8700;48.222;16.342;2023-04-28T19:13:15;15.30;99.90
17170;DHT22;8700;48.222;16.342;2023-04-28T19:16:37;15.40;99.90
17170;DHT22;8700;48.222;16.342;2023-04-28T19:19:58;15.30;99.90
17170;DHT22;8700;48.222;16.342;2023-04-28T19:23:20;15.20;99.90
17170;DHT22;8700;48.222;16.342;2023-04-28T19:26:41;15.20;99.90
17170;DHT22;8700;48.222;16.342;2023-04-28T19:30:07;15.40;99.90
17170;DHT22;8700;48.222;16.342;2023-04-28T19:33:29;15.40;99.90
17170;DHT22;8700;48.222;16.342;2023-04-28T19:36:52;15.40;99.90
17170;DHT22;8700;48.222;16.342;2023-04-28T19:40:15;15.50;99.90
17170;DHT22;8700;48.222;16.342;2023-04-28T19:43:37;15.50;99.90
17170;DHT22;8700;48.222;16.342;2023-04-28T19:47:02;15.40;99.90
17170;DHT22;8700;48.222;16.342;2023-04-28T19:50:26;15.30;99.90
17170;DHT22;8700;48.222;16.342;2023-04-28T19:53:48;15.20;99.90
17170;DHT22;8700;48.222;16.342;2023-04-28T19:57:14;15.20;99.90
17170;DHT22;8700;48.222;16.342;2023-04-28T20:00:36;15.30;99.90
17170;DHT22;8700;48.222;16.342;2023-04-28T20:04:00;15.30;99.90
17170;DHT22;8700;48.222;16.342;2023-04-28T20:07:22;15.10;99.90
17170;DHT22;8700;48.222;16.342;2023-04-28T20:10:44;15.10;99.90
17170;DHT22;8700;48.222;16.342;2023-04-28T20:14:05;15.20;99.90
17170;DHT22;8700;48.222;16.342;2023-04-28T20:17:27;15.30;99.90
17170;DHT22;8700;48.222;16.342;2023-04-28T20:20:52;15.40;99.90
17170;DHT22;8700;48.222;16.342;2023-04-28T20:24:14;15.30;99.90
17170;DHT22;8700;48.222;16.342;2023-04-28T20:27:35;15.30;99.90
17170;DHT22;8700;48.222;16.342;2023-04-28T20:30:57;15.40;99.90
17170;DHT22;8700;48.222;16.342;2023-04-28T20:34:19;15.30;99.90
17170;DHT22;8700;48.222;16.342;2023-04-28T20:37:43;15.30;99.90
17170;DHT22;8700;48.222;16.342;2023-04-28T20:41:04;15.30;99.90
17170;DHT22;8700;48.222;16.342;2023-04-28T20:44:26;15.20;99.90
17170;DHT22;8700;48.222;16.342;2023-04-28T20:47:48;15.20;99.90
17170;DHT22;8700;48.222;16.342;2023-04-28T20:51:09;15.20;99.90
17170;DHT22;8700;48.222;16.342;2023-04-28T20:54:33;15.10;99.90
17170;DHT22;8700;48.222;16.342;2023-04-28T20:57:55;15.10;99.90
17170;DHT22;8700;48.222;16.342;2023-04-28T21:01:17;15.20;99.90
17170;DHT22;8700;48.222;16.342;2023-04-28T21:04:38;15.20;99.90
17170;DHT22;8700;48.222;16.342;2023-04-28T21:08:00;14.90;99.90
17170;DHT22;8700;48.222;16.342;2023-04-28T21:11:22;14.90;99.90
17170;DHT22;8700;48.222;16.342;2023-04-28T21:14:44;15.10;99.90
17170;DHT22;8700;48.222;16.342;2023-04-28T21:18:06;15.20;99.90
17170;DHT22;8700;48.222;16.342;2023-04-28T21:21:30;15.10;99.90
17170;DHT22;8700;48.222;16.342;2023-04-28T21:24:53;15.00;99.90
17170;DHT22;8700;48.222;16.342;2023-04-28T21:28:16;14.90;99.90
17170;DHT22;8700;48.222;16.342;2023-04-28T21:31:40;14.90;99.90